sensor_id;sensor_type;location;lat;lon;timestamp;pressure;altitude;pressure_sealevel;temperature;humidity
73558;BME280;61829;53.286;10.434;2023-04-26T00:02:13;101193.56;;;2.60;90.69
73558;BME280;61829;53.286;10.434;2023-04-26T00:04:45;101201.56;;;2.60;90.50
73558;BME280;61829;53.286;10.434;2023-04-26T00:07:14;101201.69;;;2.58;90.58
73558;BME280;61829;53.286;10.434;2023-04-26T00:09:40;101192.00;;;2.57;90.66
73558;BME280;61829;53.286;10.434;2023-04-26T00:12:06;101193.97;;;2.55;90.57
73558;BME280;61829;53.286;10.434;2023-04-26T00:14:32;101203.63;;;2.56;90.68
73558;BME280;61829;53.286;10.434;2023-04-26T00:16:58;101200.25;;;2.54;90.26
73558;BME280;61829;53.286;10.434;2023-04-26T00:19:24;101192.41;;;2.53;90.42
73558;BME280;61829;53.286;10.434;2023-04-26T00:21:50;101197.00;;;2.51;90.47
73558;BME280;61829;53.286;10.434;2023-04-26T00:24:16;101195.41;;;2.48;90.10
73558;BME280;61829;53.286;10.434;2023-04-26T00:26:42;101193.75;;;2.47;90.23
73558;BME280;61829;53.286;10.434;2023-04-26T00:29:08;101192.03;;;2.46;90.13
73558;BME280;61829;53.286;10.434;2023-04-26T00:31:34;101194.00;;;2.44;90.16
73558;BME280;61829;53.286;10.434;2023-04-26T00:33:59;101200.25;;;2.43;90.24
73558;BME280;61829;53.286;10.434;2023-04-26T00:36:29;101204.88;;;2.41;90.21
73558;BME280;61829;53.286;10.434;2023-04-26T00:38:56;101206.66;;;2.40;90.68
73558;BME280;61829;53.286;10.434;2023-04-26T00:41:22;101197.25;;;2.36;90.49
73558;BME280;61829;53.286;10.434;2023-04-26T00:43:51;101206.06;;;2.37;90.31
73558;BME280;61829;53.286;10.434;2023-04-26T00:46:20;101209.81;;;2.34;90.58
73558;BME280;61829;53.286;10.434;2023-04-26T00:48:48;101212.47;;;2.34;90.46
73558;BME280;61829;53.286;10.434;2023-04-26T00:51:14;101208.97;;;2.34;90.78
73558;BME280;61829;53.286;10.434;2023-04-26T00:53:40;101206.31;;;2.34;91.06
73558;BME280;61829;53.286;10.434;2023-04-26T00:56:08;101211.63;;;2.34;91.10
73558;BME280;61829;53.286;10.434;2023-04-26T00:58:36;101209.81;;;2.34;91.21
73558;BME280;61829;53.286;10.434;2023-04-26T01:01:02;101208.88;;;2.35;90.97
73558;BME280;61829;53.286;10.434;2023-04-26T01:03:28;101218.63;;;2.35;90.98
73558;BME280;61829;53.286;10.434;2023-04-26T01:05:58;101208.13;;;2.33;91.42
73558;BME280;61829;53.286;10.434;2023-04-26T01:09:35;101215.03;;;2.36;91.13
73558;BME280;61829;53.286;10.434;2023-04-26T01:12:17;101218.53;;;2.36;91.20
73558;BME280;61829;53.286;10.434;2023-04-26T01:14:48;101216.84;;;2.35;91.42
73558;BME280;61829;53.286;10.434;2023-04-26T01:18:12;101223.75;;;2.38;91.61
73558;BME280;61829;53.286;10.434;2023-04-26T01:20:23;101231.47;;;2.41;91.77
73558;BME280;61829;53.286;10.434;2023-04-26T01:22:54;101236.53;;;2.44;91.83
73558;BME280;61829;53.286;10.434;2023-04-26T01:26:04;101243.28;;;2.48;92.18
73558;BME280;61829;53.286;10.434;2023-04-26T01:28:33;101238.47;;;2.53;92.81
73558;BME280;61829;53.286;10.434;2023-04-26T01:31:03;101240.75;;;2.58;93.04
73558;BME280;61829;53.286;10.434;2023-04-26T01:33:36;101232.66;;;2.59;92.87
73558;BME280;61829;53.286;10.434;2023-04-26T01:36:08;101229.38;;;2.56;92.78
73558;BME280;61829;53.286;10.434;2023-04-26T01:39:00;101227.56;;;2.56;92.66
73558;BME280;61829;53.286;10.434;2023-04-26T01:41:28;101230.47;;;2.53;93.13
73558;BME280;61829;53.286;10.434;2023-04-26T01:43:55;101234.13;;;2.52;92.94
73558;BME280;61829;53.286;10.434;2023-04-26T01:46:24;101228.06;;;2.50;93.03
73558;BME280;61829;53.286;10.434;2023-04-26T01:48:51;101233.50;;;2.48;92.60
73558;BME280;61829;53.286;10.434;2023-04-26T01:51:19;101233.75;;;2.45;92.26
73558;BME280;61829;53.286;10.434;2023-04-26T01:53:49;101226.84;;;2.43;92.29
73558;BME280;61829;53.286;10.434;2023-04-26T01:56:22;101233.25;;;2.40;92.53
73558;BME280;61829;53.286;10.434;2023-04-26T01:58:50;101235.31;;;2.37;92.80
73558;BME280;61829;53.286;10.434;2023-04-26T02:01:27;101228.56;;;2.33;92.56
73558;BME280;61829;53.286;10.434;2023-04-26T02:03:54;101235.91;;;2.29;92.76
73558;BME280;61829;53.286;10.434;2023-04-26T02:06:22;101235.09;;;2.29;92.64
73558;BME280;61829;53.286;10.434;2023-04-26T02:08:49;101228.31;;;2.24;93.14
73558;BME280;61829;53.286;10.434;2023-04-26T02:11:16;101222.28;;;2.22;93.03
73558;BME280;61829;53.286;10.434;2023-04-26T02:13:46;101229.53;;;2.20;93.16
73558;BME280;61829;53.286;10.434;2023-04-26T02:20:32;101239.31;;;2.20;93.54
73558;BME280;61829;53.286;10.434;2023-04-26T02:22:59;101232.31;;;2.19;93.47
73558;BME280;61829;53.286;10.434;2023-04-26T02:25:41;101225.28;;;2.18;93.11
73558;BME280;61829;53.286;10.434;2023-04-26T02:28:11;101229.91;;;2.16;93.92
73558;BME280;61829;53.286;10.434;2023-04-26T02:30:45;101239.22;;;2.21;94.15
73558;BME280;61829;53.286;10.434;2023-04-26T02:33:31;101237.88;;;2.27;93.93
73558;BME280;61829;53.286;10.434;2023-04-26T02:36:04;101227.84;;;2.31;94.25
73558;BME280;61829;53.286;10.434;2023-04-26T02:38:36;101227.72;;;2.32;94.73
73558;BME280;61829;53.286;10.434;2023-04-26T02:41:30;101227.47;;;2.35;94.41
73558;BME280;61829;53.286;10.434;2023-04-26T02:43:59;101234.25;;;2.39;95.06
73558;BME280;61829;53.286;10.434;2023-04-26T02:46:26;101224.44;;;2.40;95.59
73558;BME280;61829;53.286;10.434;2023-04-26T02:49:08;101228.81;;;2.41;95.29
73558;BME280;61829;53.286;10.434;2023-04-26T02:51:36;101226.16;;;2.41;94.97
73558;BME280;61829;53.286;10.434;2023-04-26T02:54:03;101235.06;;;2.40;94.99
73558;BME280;61829;53.286;10.434;2023-04-26T02:56:34;101238.72;;;2.39;95.06
73558;BME280;61829;53.286;10.434;2023-04-26T02:59:42;101234.38;;;2.38;95.34
73558;BME280;61829;53.286;10.434;2023-04-26T03:02:11;101240.41;;;2.40;94.85
73558;BME280;61829;53.286;10.434;2023-04-26T03:04:38;101239.31;;;2.42;94.63
73558;BME280;61829;53.286;10.434;2023-04-26T03:07:06;101243.53;;;2.45;94.66
73558;BME280;61829;53.286;10.434;2023-04-26T03:09:33;101246.94;;;2.47;95.18
73558;BME280;61829;53.286;10.434;2023-04-26T03:15:02;101248.13;;;2.54;95.25
73558;BME280;61829;53.286;10.434;2023-04-26T03:17:33;101252.50;;;2.55;95.42
73558;BME280;61829;53.286;10.434;2023-04-26T03:20:00;101250.53;;;2.57;95.42
73558;BME280;61829;53.286;10.434;2023-04-26T03:22:27;101254.66;;;2.61;94.97
73558;BME280;61829;53.286;10.434;2023-04-26T03:24:53;101266.97;;;2.62;95.08
73558;BME280;61829;53.286;10.434;2023-04-26T03:27:24;101251.75;;;2.64;95.20
73558;BME280;61829;53.286;10.434;2023-04-26T03:29:51;101251.59;;;2.66;95.55
73558;BME280;61829;53.286;10.434;2023-04-26T03:32:19;101255.00;;;2.68;95.28
73558;BME280;61829;53.286;10.434;2023-04-26T03:35:16;101246.19;;;2.67;95.44
73558;BME280;61829;53.286;10.434;2023-04-26T03:37:56;101246.19;;;2.67;95.25
73558;BME280;61829;53.286;10.434;2023-04-26T03:40:24;101247.03;;;2.68;94.77
73558;BME280;61829;53.286;10.434;2023-04-26T03:43:05;101244.09;;;2.71;95.04
73558;BME280;61829;53.286;10.434;2023-04-26T03:45:35;101242.53;;;2.68;95.44
73558;BME280;61829;53.286;10.434;2023-04-26T03:48:05;101246.66;;;2.73;95.34
73558;BME280;61829;53.286;10.434;2023-04-26T03:51:15;101245.94;;;2.70;95.06
73558;BME280;61829;53.286;10.434;2023-04-26T03:53:22;101250.53;;;2.68;94.57
73558;BME280;61829;53.286;10.434;2023-04-26T03:55:49;101254.16;;;2.67;94.30
73558;BME280;61829;53.286;10.434;2023-04-26T03:58:15;101251.50;;;2.67;94.08
73558;BME280;61829;53.286;10.434;2023-04-26T04:00:41;101253.06;;;2.70;94.44
73558;BME280;61829;53.286;10.434;2023-04-26T04:03:08;101242.44;;;2.70;94.41
73558;BME280;61829;53.286;10.434;2023-04-26T04:05:34;101236.03;;;2.73;94.30
73558;BME280;61829;53.286;10.434;2023-04-26T04:08:00;101234.94;;;2.75;93.89
73558;BME280;61829;53.286;10.434;2023-04-26T04:10:27;101246.53;;;2.74;94.53
73558;BME280;61829;53.286;10.434;2023-04-26T04:12:53;101247.25;;;2.76;95.04
73558;BME280;61829;53.286;10.434;2023-04-26T04:15:19;101246.16;;;2.79;94.70
73558;BME280;61829;53.286;10.434;2023-04-26T04:17:46;101254.03;;;2.80;95.09
73558;BME280;61829;53.286;10.434;2023-04-26T04:20:12;101251.13;;;2.83;95.15
73558;BME280;61829;53.286;10.434;2023-04-26T04:22:39;101249.31;;;2.84;94.71
73558;BME280;61829;53.286;10.434;2023-04-26T04:25:07;101262.72;;;2.82;94.25
73558;BME280;61829;53.286;10.434;2023-04-26T04:27:35;101253.91;;;2.82;94.40
73558;BME280;61829;53.286;10.434;2023-04-26T04:30:03;101257.53;;;2.81;94.47
73558;BME280;61829;53.286;10.434;2023-04-26T04:32:32;101254.88;;;2.81;93.78
73558;BME280;61829;53.286;10.434;2023-04-26T04:34:58;101253.31;;;2.78;93.93
73558;BME280;61829;53.286;10.434;2023-04-26T04:37:24;101252.31;;;2.79;93.46
73558;BME280;61829;53.286;10.434;2023-04-26T04:39:51;101254.16;;;2.79;93.46
73558;BME280;61829;53.286;10.434;2023-04-26T04:42:17;101257.88;;;2.87;93.30
73558;BME280;61829;53.286;10.434;2023-04-26T04:44:44;101263.44;;;2.96;92.87
73558;BME280;61829;53.286;10.434;2023-04-26T04:47:11;101266.91;;;3.07;92.28
73558;BME280;61829;53.286;10.434;2023-04-26T04:49:37;101264.88;;;3.32;92.27
73558;BME280;61829;53.286;10.434;2023-04-26T04:52:04;101263.44;;;3.60;90.07
73558;BME280;61829;53.286;10.434;2023-04-26T04:54:30;101263.09;;;3.95;88.50
73558;BME280;61829;53.286;10.434;2023-04-26T04:56:56;101270.03;;;4.28;85.88
73558;BME280;61829;53.286;10.434;2023-04-26T04:59:23;101270.31;;;4.66;84.24
73558;BME280;61829;53.286;10.434;2023-04-26T05:01:49;101267.75;;;5.05;82.31
73558;BME280;61829;53.286;10.434;2023-04-26T05:04:17;101278.03;;;5.38;80.66
73558;BME280;61829;53.286;10.434;2023-04-26T05:06:43;101269.75;;;5.61;78.53
73558;BME280;61829;53.286;10.434;2023-04-26T05:09:09;101269.81;;;5.89;77.71
73558;BME280;61829;53.286;10.434;2023-04-26T05:11:35;101274.31;;;6.17;77.32
73558;BME280;61829;53.286;10.434;2023-04-26T05:14:02;101270.69;;;6.46;75.52
73558;BME280;61829;53.286;10.434;2023-04-26T05:16:28;101270.03;;;6.71;74.23
73558;BME280;61829;53.286;10.434;2023-04-26T05:18:56;101267.31;;;6.99;73.48
73558;BME280;61829;53.286;10.434;2023-04-26T05:21:25;101271.88;;;7.34;71.52
73558;BME280;61829;53.286;10.434;2023-04-26T05:23:51;101258.22;;;7.63;70.30
73558;BME280;61829;53.286;10.434;2023-04-26T05:26:17;101280.72;;;7.88;69.08
73558;BME280;61829;53.286;10.434;2023-04-26T05:28:43;101280.63;;;7.98;67.86
73558;BME280;61829;53.286;10.434;2023-04-26T05:31:10;101278.47;;;7.84;68.94
73558;BME280;61829;53.286;10.434;2023-04-26T05:33:37;101277.72;;;8.18;67.83
73558;BME280;61829;53.286;10.434;2023-04-26T05:36:03;101283.63;;;8.47;66.43
73558;BME280;61829;53.286;10.434;2023-04-26T05:38:29;101286.78;;;8.43;65.70
73558;BME280;61829;53.286;10.434;2023-04-26T05:40:55;101284.38;;;8.66;65.49
73558;BME280;61829;53.286;10.434;2023-04-26T05:43:21;101284.97;;;8.86;64.28
73558;BME280;61829;53.286;10.434;2023-04-26T05:45:54;101286.03;;;9.01;63.54
73558;BME280;61829;53.286;10.434;2023-04-26T05:48:22;101287.59;;;9.28;62.78
73558;BME280;61829;53.286;10.434;2023-04-26T05:50:49;101287.16;;;9.49;61.29
73558;BME280;61829;53.286;10.434;2023-04-26T05:53:16;101291.03;;;9.87;61.27
73558;BME280;61829;53.286;10.434;2023-04-26T05:55:42;101291.19;;;10.27;59.34
73558;BME280;61829;53.286;10.434;2023-04-26T05:58:09;101284.06;;;10.50;58.77
73558;BME280;61829;53.286;10.434;2023-04-26T06:00:36;101287.00;;;10.72;57.45
73558;BME280;61829;53.286;10.434;2023-04-26T06:03:02;101284.25;;;10.88;57.30
73558;BME280;61829;53.286;10.434;2023-04-26T06:05:28;101283.72;;;10.93;56.28
73558;BME280;61829;53.286;10.434;2023-04-26T06:07:54;101286.94;;;11.19;55.69
73558;BME280;61829;53.286;10.434;2023-04-26T06:10:20;101288.78;;;11.50;55.02
73558;BME280;61829;53.286;10.434;2023-04-26T06:12:46;101293.06;;;11.82;54.43
73558;BME280;61829;53.286;10.434;2023-04-26T06:15:12;101291.75;;;12.01;52.76
73558;BME280;61829;53.286;10.434;2023-04-26T06:17:42;101287.78;;;12.12;53.03
73558;BME280;61829;53.286;10.434;2023-04-26T06:20:08;101289.31;;;12.44;52.47
73558;BME280;61829;53.286;10.434;2023-04-26T06:22:35;101288.84;;;12.55;52.00
73558;BME280;61829;53.286;10.434;2023-04-26T06:25:01;101302.59;;;12.31;52.37
73558;BME280;61829;53.286;10.434;2023-04-26T06:27:27;101292.06;;;12.21;52.26
73558;BME280;61829;53.286;10.434;2023-04-26T06:29:53;101296.78;;;12.04;52.02
73558;BME280;61829;53.286;10.434;2023-04-26T06:32:19;101289.47;;;12.28;51.44
73558;BME280;61829;53.286;10.434;2023-04-26T06:34:45;101293.50;;;12.32;51.73
73558;BME280;61829;53.286;10.434;2023-04-26T06:37:11;101292.06;;;12.06;52.35
73558;BME280;61829;53.286;10.434;2023-04-26T06:39:37;101295.97;;;12.19;52.88
73558;BME280;61829;53.286;10.434;2023-04-26T06:42:06;101288.03;;;12.02;52.42
73558;BME280;61829;53.286;10.434;2023-04-26T06:44:32;101287.06;;;12.33;51.48
73558;BME280;61829;53.286;10.434;2023-04-26T06:46:58;101284.16;;;12.64;51.33
73558;BME280;61829;53.286;10.434;2023-04-26T06:49:25;101286.47;;;12.82;50.37
73558;BME280;61829;53.286;10.434;2023-04-26T06:51:51;101283.13;;;12.65;50.89
73558;BME280;61829;53.286;10.434;2023-04-26T06:54:18;101294.59;;;12.23;51.21
73558;BME280;61829;53.286;10.434;2023-04-26T06:56:44;101297.06;;;11.95;51.66
73558;BME280;61829;53.286;10.434;2023-04-26T06:59:11;101289.44;;;11.98;52.30
73558;BME280;61829;53.286;10.434;2023-04-26T07:01:37;101288.25;;;12.30;51.56
73558;BME280;61829;53.286;10.434;2023-04-26T07:04:05;101296.09;;;12.70;51.09
73558;BME280;61829;53.286;10.434;2023-04-26T07:06:36;101291.25;;;12.80;50.83
73558;BME280;61829;53.286;10.434;2023-04-26T07:09:03;101296.00;;;12.78;49.92
73558;BME280;61829;53.286;10.434;2023-04-26T07:11:30;101297.47;;;12.95;49.91
73558;BME280;61829;53.286;10.434;2023-04-26T07:13:56;101306.75;;;13.22;49.60
73558;BME280;61829;53.286;10.434;2023-04-26T07:16:22;101306.41;;;13.25;48.99
73558;BME280;61829;53.286;10.434;2023-04-26T07:18:49;101307.69;;;13.30;48.97
73558;BME280;61829;53.286;10.434;2023-04-26T07:21:17;101307.13;;;13.34;48.15
73558;BME280;61829;53.286;10.434;2023-04-26T07:23:44;101306.88;;;13.14;48.66
73558;BME280;61829;53.286;10.434;2023-04-26T07:26:10;101311.13;;;12.72;48.61
73558;BME280;61829;53.286;10.434;2023-04-26T07:28:39;101308.38;;;12.28;49.47
73558;BME280;61829;53.286;10.434;2023-04-26T07:31:05;101306.72;;;12.27;49.42
73558;BME280;61829;53.286;10.434;2023-04-26T07:33:31;101320.91;;;11.83;50.10
73558;BME280;61829;53.286;10.434;2023-04-26T07:35:58;101315.41;;;11.99;50.33
73558;BME280;61829;53.286;10.434;2023-04-26T07:38:27;101311.97;;;12.43;50.38
73558;BME280;61829;53.286;10.434;2023-04-26T07:40:54;101305.81;;;12.34;48.93
73558;BME280;61829;53.286;10.434;2023-04-26T07:43:25;101314.44;;;12.30;50.39
73558;BME280;61829;53.286;10.434;2023-04-26T07:45:51;101309.50;;;12.19;49.20
73558;BME280;61829;53.286;10.434;2023-04-26T07:48:17;101311.00;;;12.36;49.91
73558;BME280;61829;53.286;10.434;2023-04-26T07:50:43;101309.28;;;11.82;49.93
73558;BME280;61829;53.286;10.434;2023-04-26T07:53:10;101310.72;;;11.70;51.11
73558;BME280;61829;53.286;10.434;2023-04-26T07:55:35;101314.88;;;11.58;51.41
73558;BME280;61829;53.286;10.434;2023-04-26T07:58:02;101317.69;;;11.41;51.66
73558;BME280;61829;53.286;10.434;2023-04-26T08:00:29;101307.34;;;11.45;51.95
73558;BME280;61829;53.286;10.434;2023-04-26T08:02:55;101308.69;;;11.72;51.44
73558;BME280;61829;53.286;10.434;2023-04-26T08:05:21;101305.38;;;11.85;50.29
73558;BME280;61829;53.286;10.434;2023-04-26T08:07:47;101309.69;;;11.71;50.87
73558;BME280;61829;53.286;10.434;2023-04-26T08:10:13;101318.03;;;11.38;51.22
73558;BME280;61829;53.286;10.434;2023-04-26T08:12:39;101320.94;;;10.97;51.58
73558;BME280;61829;53.286;10.434;2023-04-26T08:15:06;101314.47;;;11.07;51.98
73558;BME280;61829;53.286;10.434;2023-04-26T08:17:33;101319.53;;;11.41;50.03
73558;BME280;61829;53.286;10.434;2023-04-26T08:19:59;101318.06;;;11.61;49.75
73558;BME280;61829;53.286;10.434;2023-04-26T08:22:25;101318.41;;;11.81;49.76
73558;BME280;61829;53.286;10.434;2023-04-26T08:24:54;101312.59;;;11.69;47.64
73558;BME280;61829;53.286;10.434;2023-04-26T08:27:23;101328.50;;;11.87;47.41
73558;BME280;61829;53.286;10.434;2023-04-26T08:29:49;101330.28;;;11.72;45.00
73558;BME280;61829;53.286;10.434;2023-04-26T08:32:16;101323.81;;;12.04;45.13
73558;BME280;61829;53.286;10.434;2023-04-26T08:34:42;101321.97;;;12.20;44.03
73558;BME280;61829;53.286;10.434;2023-04-26T08:37:10;101329.94;;;12.36;45.07
73558;BME280;61829;53.286;10.434;2023-04-26T08:39:39;101324.56;;;12.66;45.41
73558;BME280;61829;53.286;10.434;2023-04-26T08:42:13;101330.16;;;12.94;45.36
73558;BME280;61829;53.286;10.434;2023-04-26T08:44:41;101343.72;;;13.15;44.48
73558;BME280;61829;53.286;10.434;2023-04-26T08:47:21;101336.19;;;12.96;44.38
73558;BME280;61829;53.286;10.434;2023-04-26T08:49:52;101340.50;;;12.61;44.69
73558;BME280;61829;53.286;10.434;2023-04-26T08:52:28;101326.69;;;12.85;44.92
73558;BME280;61829;53.286;10.434;2023-04-26T08:54:56;101334.25;;;12.75;44.86
73558;BME280;61829;53.286;10.434;2023-04-26T08:57:23;101341.59;;;12.96;44.79
73558;BME280;61829;53.286;10.434;2023-04-26T08:59:50;101330.84;;;13.17;43.54
73558;BME280;61829;53.286;10.434;2023-04-26T09:02:20;101334.25;;;13.41;44.09
73558;BME280;61829;53.286;10.434;2023-04-26T09:04:48;101332.81;;;13.60;44.60
73558;BME280;61829;53.286;10.434;2023-04-26T09:07:26;101330.56;;;13.63;43.31
73558;BME280;61829;53.286;10.434;2023-04-26T09:09:57;101335.97;;;13.63;43.81
73558;BME280;61829;53.286;10.434;2023-04-26T09:12:24;101333.38;;;13.55;42.30
73558;BME280;61829;53.286;10.434;2023-04-26T09:14:51;101332.25;;;13.28;44.75
73558;BME280;61829;53.286;10.434;2023-04-26T09:17:29;101329.56;;;12.98;43.49
73558;BME280;61829;53.286;10.434;2023-04-26T09:19:56;101338.16;;;12.57;45.19
73558;BME280;61829;53.286;10.434;2023-04-26T09:22:33;101333.59;;;12.43;45.76
73558;BME280;61829;53.286;10.434;2023-04-26T09:25:02;101341.19;;;12.25;47.24
73558;BME280;61829;53.286;10.434;2023-04-26T09:30:10;101343.34;;;11.60;47.73
73558;BME280;61829;53.286;10.434;2023-04-26T09:32:56;101356.25;;;11.19;47.76
73558;BME280;61829;53.286;10.434;2023-04-26T09:35:33;101357.75;;;10.74;49.33
73558;BME280;61829;53.286;10.434;2023-04-26T09:38:09;101359.88;;;10.31;53.21
73558;BME280;61829;53.286;10.434;2023-04-26T09:40:49;101357.16;;;9.90;55.90
73558;BME280;61829;53.286;10.434;2023-04-26T09:43:19;101360.53;;;9.92;56.22
73558;BME280;61829;53.286;10.434;2023-04-26T09:45:56;101356.34;;;10.30;55.61
73558;BME280;61829;53.286;10.434;2023-04-26T09:48:31;101347.66;;;10.76;54.46
73558;BME280;61829;53.286;10.434;2023-04-26T09:53:37;101357.59;;;11.15;54.11
73558;BME280;61829;53.286;10.434;2023-04-26T09:56:07;101355.97;;;11.06;54.19
73558;BME280;61829;53.286;10.434;2023-04-26T09:58:39;101360.56;;;10.89;57.26
73558;BME280;61829;53.286;10.434;2023-04-26T10:01:06;101358.59;;;10.74;57.89
73558;BME280;61829;53.286;10.434;2023-04-26T10:03:33;101379.84;;;10.53;58.77
73558;BME280;61829;53.286;10.434;2023-04-26T10:05:59;101375.34;;;10.45;57.89
73558;BME280;61829;53.286;10.434;2023-04-26T10:08:25;101371.13;;;10.59;58.15
73558;BME280;61829;53.286;10.434;2023-04-26T10:10:51;101368.28;;;11.00;56.79
73558;BME280;61829;53.286;10.434;2023-04-26T10:13:18;101367.81;;;11.36;53.41
73558;BME280;61829;53.286;10.434;2023-04-26T10:15:43;101355.25;;;11.43;50.09
73558;BME280;61829;53.286;10.434;2023-04-26T10:18:10;101345.41;;;11.58;51.92
73558;BME280;61829;53.286;10.434;2023-04-26T10:20:40;101358.72;;;11.83;51.17
73558;BME280;61829;53.286;10.434;2023-04-26T10:23:15;101355.13;;;12.13;50.89
73558;BME280;61829;53.286;10.434;2023-04-26T10:25:44;101348.09;;;12.27;49.47
73558;BME280;61829;53.286;10.434;2023-04-26T10:28:10;101354.25;;;12.36;48.46
73558;BME280;61829;53.286;10.434;2023-04-26T10:30:55;101352.88;;;12.70;48.31
73558;BME280;61829;53.286;10.434;2023-04-26T10:33:23;101344.75;;;13.14;48.83
73558;BME280;61829;53.286;10.434;2023-04-26T10:36:06;101344.69;;;13.59;47.37
73558;BME280;61829;53.286;10.434;2023-04-26T10:38:35;101343.69;;;13.66;45.08
73558;BME280;61829;53.286;10.434;2023-04-26T10:41:27;101348.53;;;13.92;42.92
73558;BME280;61829;53.286;10.434;2023-04-26T10:43:54;101351.81;;;14.09;42.80
73558;BME280;61829;53.286;10.434;2023-04-26T10:46:39;101352.72;;;13.95;42.43
73558;BME280;61829;53.286;10.434;2023-04-26T10:49:16;101350.47;;;13.77;43.69
73558;BME280;61829;53.286;10.434;2023-04-26T10:57:11;101344.78;;;12.99;45.44
73558;BME280;61829;53.286;10.434;2023-04-26T10:59:37;101354.09;;;13.27;46.12
73558;BME280;61829;53.286;10.434;2023-04-26T11:02:03;101346.03;;;13.33;45.34
73558;BME280;61829;53.286;10.434;2023-04-26T11:04:51;101343.81;;;13.22;45.23
73558;BME280;61829;53.286;10.434;2023-04-26T11:07:35;101354.47;;;13.09;45.76
73558;BME280;61829;53.286;10.434;2023-04-26T11:10:02;101360.06;;;12.92;44.58
73558;BME280;61829;53.286;10.434;2023-04-26T11:12:28;101371.59;;;12.42;46.23
73558;BME280;61829;53.286;10.434;2023-04-26T11:14:54;101389.34;;;11.75;48.60
73558;BME280;61829;53.286;10.434;2023-04-26T11:17:21;101373.28;;;11.19;49.95
73558;BME280;61829;53.286;10.434;2023-04-26T11:19:47;101386.56;;;10.82;51.44
73558;BME280;61829;53.286;10.434;2023-04-26T11:22:12;101378.84;;;10.62;52.80
73558;BME280;61829;53.286;10.434;2023-04-26T11:24:38;101387.09;;;10.69;52.59
73558;BME280;61829;53.286;10.434;2023-04-26T11:27:08;101394.34;;;10.52;52.29
73558;BME280;61829;53.286;10.434;2023-04-26T11:29:34;101387.28;;;10.18;54.28
73558;BME280;61829;53.286;10.434;2023-04-26T11:32:00;101391.47;;;9.96;52.38
73558;BME280;61829;53.286;10.434;2023-04-26T11:34:37;101391.28;;;9.73;53.19
73558;BME280;61829;53.286;10.434;2023-04-26T11:37:06;101388.06;;;9.70;55.58
73558;BME280;61829;53.286;10.434;2023-04-26T11:39:33;101396.81;;;9.63;56.12
73558;BME280;61829;53.286;10.434;2023-04-26T11:42:07;101389.34;;;9.41;58.60
73558;BME280;61829;53.286;10.434;2023-04-26T11:44:34;101394.44;;;9.52;59.30
73558;BME280;61829;53.286;10.434;2023-04-26T11:47:04;101393.09;;;9.64;58.74
73558;BME280;61829;53.286;10.434;2023-04-26T11:49:31;101393.78;;;9.58;59.12
73558;BME280;61829;53.286;10.434;2023-04-26T11:52:01;101394.59;;;9.51;59.53
73558;BME280;61829;53.286;10.434;2023-04-26T11:54:28;101391.88;;;9.34;59.96
73558;BME280;61829;53.286;10.434;2023-04-26T11:56:56;101395.03;;;9.30;60.29
73558;BME280;61829;53.286;10.434;2023-04-26T11:59:23;101393.34;;;9.29;60.64
73558;BME280;61829;53.286;10.434;2023-04-26T12:01:50;101398.41;;;9.32;60.91
73558;BME280;61829;53.286;10.434;2023-04-26T12:04:17;101406.50;;;9.40;62.75
73558;BME280;61829;53.286;10.434;2023-04-26T12:06:45;101395.47;;;9.67;61.97
73558;BME280;61829;53.286;10.434;2023-04-26T12:09:12;101398.88;;;9.86;60.95
73558;BME280;61829;53.286;10.434;2023-04-26T12:11:38;101402.72;;;9.75;60.08
73558;BME280;61829;53.286;10.434;2023-04-26T12:14:05;101398.22;;;9.92;59.89
73558;BME280;61829;53.286;10.434;2023-04-26T12:16:35;101400.44;;;10.05;58.08
73558;BME280;61829;53.286;10.434;2023-04-26T12:19:04;101400.25;;;10.06;57.72
73558;BME280;61829;53.286;10.434;2023-04-26T12:21:42;101393.34;;;10.12;55.46
73558;BME280;61829;53.286;10.434;2023-04-26T12:24:28;101392.00;;;10.00;52.99
73558;BME280;61829;53.286;10.434;2023-04-26T12:26:59;101393.38;;;10.37;53.67
73558;BME280;61829;53.286;10.434;2023-04-26T12:29:27;101394.19;;;10.62;52.71
73558;BME280;61829;53.286;10.434;2023-04-26T12:31:58;101388.59;;;10.79;50.09
73558;BME280;61829;53.286;10.434;2023-04-26T12:34:25;101388.63;;;10.63;48.56
73558;BME280;61829;53.286;10.434;2023-04-26T12:36:50;101389.13;;;10.59;50.28
73558;BME280;61829;53.286;10.434;2023-04-26T12:39:17;101384.22;;;10.70;51.35
73558;BME280;61829;53.286;10.434;2023-04-26T12:41:44;101387.00;;;11.01;49.65
73558;BME280;61829;53.286;10.434;2023-04-26T12:44:11;101378.19;;;11.16;49.61
73558;BME280;61829;53.286;10.434;2023-04-26T12:46:39;101384.22;;;11.18;49.19
73558;BME280;61829;53.286;10.434;2023-04-26T12:49:05;101385.88;;;11.27;49.39
73558;BME280;61829;53.286;10.434;2023-04-26T12:51:32;101392.59;;;11.31;49.34
73558;BME280;61829;53.286;10.434;2023-04-26T12:53:58;101385.84;;;11.35;49.02
73558;BME280;61829;53.286;10.434;2023-04-26T12:56:25;101392.44;;;11.33;49.92
73558;BME280;61829;53.286;10.434;2023-04-26T12:58:52;101398.00;;;11.31;50.59
73558;BME280;61829;53.286;10.434;2023-04-26T13:01:18;101392.25;;;11.34;49.53
73558;BME280;61829;53.286;10.434;2023-04-26T13:03:44;101398.34;;;11.28;50.58
73558;BME280;61829;53.286;10.434;2023-04-26T13:06:11;101396.97;;;11.32;50.67
73558;BME280;61829;53.286;10.434;2023-04-26T13:08:37;101394.81;;;11.28;50.38
73558;BME280;61829;53.286;10.434;2023-04-26T13:11:03;101394.00;;;11.19;50.63
73558;BME280;61829;53.286;10.434;2023-04-26T13:13:30;101391.31;;;11.19;49.49
73558;BME280;61829;53.286;10.434;2023-04-26T13:15:56;101397.56;;;11.11;49.10